Time;durP1;ratioP1;P1;durP2;ratioP2;P2;SDS_P1;SDS_P2;PMS_P1;PMS_P2;Temp;Humidity;BMP_temperature;BMP_pressure;BME280_temperature;BME280_humidity;BME280_pressure;Samples;Min_cycle;Max_cycle;Signal;HPM_P1;HPM_P2
2024/01/21 00:00:20;;;;;;;11.25;7.00;;;;;;;-1.19;79.49;102390.69;5009190;28;20411;-79
2024/01/21 00:02:47;;;;;;;10.25;7.03;;;;;;;-1.19;79.15;102393.31;4997141;28;20047;-79
2024/01/21 00:05:14;;;;;;;15.75;7.18;;;;;;;-1.19;78.86;102385.47;4996130;28;20049;-79
2024/01/21 00:07:40;;;;;;;12.93;7.50;;;;;;;-1.19;79.30;102374.25;4991868;28;21157;-79
2024/01/21 00:10:10;;;;;;;10.23;6.78;;;;;;;-1.20;79.38;102370.13;4998396;28;20805;-79
2024/01/21 00:12:37;;;;;;;11.40;6.32;;;;;;;-1.20;79.18;102365.66;4996211;28;20054;-79
2024/01/21 00:15:05;;;;;;;7.72;5.30;;;;;;;-1.20;78.71;102365.66;4995199;28;20047;-79
2024/01/21 00:17:32;;;;;;;11.27;6.65;;;;;;;-1.19;78.27;102367.19;4996438;28;20070;-79
2024/01/21 00:19:59;;;;;;;11.77;7.03;;;;;;;-1.18;78.60;102357.50;4995975;28;20058;-79
2024/01/21 00:22:25;;;;;;;11.90;6.40;;;;;;;-1.19;78.93;102353.34;4995296;28;20077;-79
2024/01/21 00:24:52;;;;;;;11.52;6.35;;;;;;;-1.20;78.17;102354.47;5000699;28;20047;-79
2024/01/21 00:27:18;;;;;;;9.30;6.45;;;;;;;-1.19;79.39;102358.56;4999245;28;20195;-79
2024/01/21 00:29:46;;;;;;;12.80;6.57;;;;;;;-1.20;78.41;102349.97;4994965;28;20146;-79
2024/01/21 00:32:12;;;;;;;9.13;5.60;;;;;;;-1.19;78.16;102348.13;4996271;28;20257;-78
2024/01/21 00:34:39;;;;;;;9.65;6.63;;;;;;;-1.20;77.85;102355.19;4996987;28;20121;-79
2024/01/21 00:37:06;;;;;;;8.88;5.43;;;;;;;-1.19;77.93;102351.50;4997050;28;20058;-81
2024/01/21 00:39:33;;;;;;;8.85;6.07;;;;;;;-1.19;77.66;102345.50;4996395;28;20047;-79
2024/01/21 00:42:00;;;;;;;10.65;6.47;;;;;;;-1.20;77.72;102341.41;4996064;28;20050;-78
2024/01/21 00:44:34;;;;;;;9.18;5.95;;;;;;;-1.21;77.51;102334.63;4999088;28;20494;-79
2024/01/21 00:47:01;;;;;;;6.93;5.43;;;;;;;-1.22;78.80;102328.66;5009716;28;20505;-78
2024/01/21 00:49:29;;;;;;;7.70;5.82;;;;;;;-1.22;78.11;102326.03;5002310;28;20046;-78
2024/01/21 00:51:56;;;;;;;9.70;6.40;;;;;;;-1.23;77.41;102321.13;4995420;28;20047;-79
2024/01/21 00:54:23;;;;;;;10.85;6.30;;;;;;;-1.25;77.68;102316.22;4996824;28;20070;-79
2024/01/21 00:56:50;;;;;;;8.77;5.63;;;;;;;-1.25;76.97;102318.84;4996207;28;20047;-79
2024/01/21 00:59:16;;;;;;;9.82;5.97;;;;;;;-1.25;78.00;102305.75;5004651;28;20050;-78
2024/01/21 01:01:43;;;;;;;7.68;4.57;;;;;;;-1.25;77.67;102305.75;4994662;28;20543;-77
2024/01/21 01:04:10;;;;;;;7.78;5.63;;;;;;;-1.26;77.03;102312.06;4993120;28;20620;-77
2024/01/21 01:06:36;;;;;;;7.85;5.57;;;;;;;-1.28;77.02;102316.09;4995755;28;20051;-77
2024/01/21 01:09:04;;;;;;;10.05;6.10;;;;;;;-1.27;76.49;102304.56;4992146;28;20054;-77
2024/01/21 01:11:32;;;;;;;10.88;5.93;;;;;;;-1.29;76.78;102301.50;4993618;28;20047;-78
2024/01/21 01:13:58;;;;;;;9.95;5.50;;;;;;;-1.30;76.23;102289.50;4992383;28;20788;-78
2024/01/21 01:16:25;;;;;;;10.68;5.60;;;;;;;-1.31;76.27;102286.13;4994359;28;20528;-77
2024/01/21 01:18:51;;;;;;;8.77;5.57;;;;;;;-1.33;76.53;102271.88;4997286;28;20594;-76
2024/01/21 01:21:18;;;;;;;10.02;5.15;;;;;;;-1.35;76.19;102259.88;4988871;28;20100;-77
2024/01/21 01:23:45;;;;;;;11.30;5.28;;;;;;;-1.36;76.60;102254.97;4993434;28;20133;-77
2024/01/21 01:26:12;;;;;;;7.85;5.40;;;;;;;-1.37;75.62;102243.00;4997912;28;20073;-79
2024/01/21 01:28:38;;;;;;;6.75;4.57;;;;;;;-1.37;76.27;102228.09;4995859;28;20496;-79
2024/01/21 01:31:08;;;;;;;5.40;4.53;;;;;;;-1.36;76.51;102218.41;4999377;28;20058;-78
2024/01/21 01:33:35;;;;;;;4.78;4.30;;;;;;;-1.35;75.63;102214.72;4998762;28;20118;-78
2024/01/21 01:36:02;;;;;;;6.72;4.75;;;;;;;-1.34;75.11;102203.16;4999191;28;20051;-78
2024/01/21 01:38:29;;;;;;;8.25;4.43;;;;;;;-1.35;75.00;102191.19;4999462;28;20848;-78
2024/01/21 01:40:55;;;;;;;5.82;4.53;;;;;;;-1.32;75.62;102192.41;4999452;28;20039;-77
2024/01/21 01:43:22;;;;;;;7.13;4.03;;;;;;;-1.33;75.12;102178.56;4992514;28;20497;-78
2024/01/21 01:45:50;;;;;;;7.20;4.45;;;;;;;-1.33;74.15;102172.59;4993684;28;20521;-78
2024/01/21 01:48:18;;;;;;;5.70;4.00;;;;;;;-1.32;74.64;102177.50;5079507;28;20050;-78
2024/01/21 01:50:45;;;;;;;6.13;4.57;;;;;;;-1.32;73.93;102174.09;4992798;28;20080;-79
2024/01/21 01:53:12;;;;;;;5.80;3.88;;;;;;;-1.31;73.79;102165.19;4994245;28;20047;-79
2024/01/21 01:55:38;;;;;;;3.78;3.45;;;;;;;-1.31;73.34;102167.81;4995642;28;20043;-78
2024/01/21 01:58:05;;;;;;;5.15;3.55;;;;;;;-1.31;73.56;102168.56;4998081;28;20043;-79
2024/01/21 02:00:32;;;;;;;6.53;3.60;;;;;;;-1.31;73.07;102165.19;5001997;28;20061;-80
2024/01/21 02:03:00;;;;;;;4.20;3.10;;;;;;;-1.29;73.26;102166.38;5004836;28;20053;-79
2024/01/21 02:05:27;;;;;;;4.38;3.40;;;;;;;-1.27;74.49;102171.28;5003724;28;20042;-79
2024/01/21 02:07:53;;;;;;;3.63;3.25;;;;;;;-1.27;73.35;102168.69;4990995;28;20071;-79
2024/01/21 02:10:20;;;;;;;9.65;4.55;;;;;;;-1.28;72.23;102175.75;4995852;28;20451;-79
2024/01/21 02:12:51;;;;;;;5.72;3.63;;;;;;;-1.29;71.69;102176.84;4995975;28;20055;-80
2024/01/21 02:15:18;;;;;;;5.05;3.65;;;;;;;-1.29;72.57;102163.78;5001926;28;20119;-80
2024/01/21 02:17:45;;;;;;;5.05;2.95;;;;;;;-1.28;72.13;102162.69;4993470;28;20038;-79
2024/01/21 02:20:12;;;;;;;8.52;3.60;;;;;;;-1.27;71.59;102161.59;4993390;28;20047;-79
2024/01/21 02:22:40;;;;;;;4.30;3.42;;;;;;;-1.27;72.46;102159.00;4994975;28;20082;-80
2024/01/21 02:25:08;;;;;;;8.35;3.90;;;;;;;-1.28;72.37;102146.25;4997350;28;20096;-77
2024/01/21 02:27:36;;;;;;;5.50;3.20;;;;;;;-1.27;73.34;102147.78;4998718;28;20058;-78
2024/01/21 02:30:03;;;;;;;7.07;3.63;;;;;;;-1.26;72.35;102137.00;4991947;28;20039;-78
2024/01/21 02:32:30;;;;;;;6.20;3.78;;;;;;;-1.26;72.37;102134.38;4995845;28;20472;-79
2024/01/21 02:34:56;;;;;;;5.80;3.20;;;;;;;-1.24;72.84;102131.47;4997465;28;20093;-78
2024/01/21 02:37:23;;;;;;;5.22;3.55;;;;;;;-1.26;71.48;102125.78;4997225;28;20075;-78
2024/01/21 02:39:50;;;;;;;9.50;3.83;;;;;;;-1.25;71.70;102117.63;4998312;28;20046;-78
2024/01/21 02:42:17;;;;;;;5.60;3.50;;;;;;;-1.24;70.79;102103.47;4999746;28;20502;-78
2024/01/21 02:44:43;;;;;;;4.47;2.92;;;;;;;-1.23;72.11;102096.41;5001180;28;20046;-79
2024/01/21 02:47:10;;;;;;;5.65;3.90;;;;;;;-1.21;71.04;102081.16;4999731;28;20125;-79
2024/01/21 02:49:36;;;;;;;5.22;3.03;;;;;;;-1.22;71.17;102072.56;5004515;28;20038;-79
2024/01/21 02:52:03;;;;;;;3.88;2.97;;;;;;;-1.20;72.55;102070.34;5000669;28;20085;-78
2024/01/21 02:54:31;;;;;;;4.78;2.95;;;;;;;-1.20;72.17;102072.97;4998982;28;20076;-79
2024/01/21 02:56:59;;;;;;;3.85;2.28;;;;;;;-1.18;72.80;102067.41;5005024;28;20038;-79
2024/01/21 02:59:27;;;;;;;8.00;3.65;;;;;;;-1.19;71.90;102060.66;4999499;28;20109;-78
2024/01/21 03:01:54;;;;;;;5.57;3.55;;;;;;;-1.19;71.52;102058.06;5004963;28;20047;-79
2024/01/21 03:04:20;;;;;;;6.35;3.65;;;;;;;-1.19;72.47;102053.59;4999142;28;20122;-79
2024/01/21 03:06:47;;;;;;;3.97;3.33;;;;;;;-1.20;71.71;102039.00;4998961;28;20054;-78
2024/01/21 03:09:14;;;;;;;4.70;3.35;;;;;;;-1.21;72.11;102040.13;4995290;28;20145;-81
2024/01/21 03:11:41;;;;;;;4.30;3.17;;;;;;;-1.20;72.95;102025.19;4998755;28;20295;-80
2024/01/21 03:14:08;;;;;;;4.13;2.88;;;;;;;-1.19;72.46;102021.47;5002361;28;20043;-81
2024/01/21 03:16:34;;;;;;;4.10;3.20;;;;;;;-1.19;71.67;102022.22;5003779;28;20054;-76
2024/01/21 03:19:01;;;;;;;3.50;2.50;;;;;;;-1.21;72.04;102027.03;4996728;28;20050;-77
2024/01/21 03:21:28;;;;;;;4.43;3.53;;;;;;;-1.22;71.47;102017.69;4997480;28;20081;-78
2024/01/21 03:23:54;;;;;;;4.75;3.58;;;;;;;-1.22;72.02;102022.91;4994422;28;20137;-78
2024/01/21 03:26:21;;;;;;;5.13;3.58;;;;;;;-1.22;72.70;102028.13;4994083;28;20051;-77
2024/01/21 03:28:47;;;;;;;3.70;3.10;;;;;;;-1.21;72.27;102013.97;4993313;28;20043;-77
2024/01/21 03:31:14;;;;;;;4.50;3.58;;;;;;;-1.21;72.93;102013.22;4992502;28;20138;-77
2024/01/21 03:33:40;;;;;;;4.43;3.15;;;;;;;-1.22;72.50;102003.84;4996403;28;20129;-78
2024/01/21 03:36:07;;;;;;;5.22;2.92;;;;;;;-1.23;73.20;102004.94;4994682;28;20047;-78
2024/01/21 03:38:34;;;;;;;4.38;2.90;;;;;;;-1.24;73.63;102000.81;4988950;28;20047;-76
2024/01/21 03:41:00;;;;;;;4.13;3.42;;;;;;;-1.25;73.42;101999.28;4993136;28;20054;-76
2024/01/21 03:43:27;;;;;;;6.30;3.42;;;;;;;-1.24;72.90;102006.03;4992828;28;20141;-77
2024/01/21 03:45:53;;;;;;;4.22;3.22;;;;;;;-1.24;72.61;102008.66;4993486;28;20047;-77
2024/01/21 03:48:20;;;;;;;5.45;3.30;;;;;;;-1.24;72.91;101992.97;4992341;28;20506;-77
2024/01/21 03:50:47;;;;;;;5.80;3.72;;;;;;;-1.23;72.46;101984.81;4993364;28;20134;-77
2024/01/21 03:53:16;;;;;;;4.57;3.30;;;;;;;-1.23;72.38;101990.03;4995446;28;20046;-77
2024/01/21 03:55:43;;;;;;;5.47;3.55;;;;;;;-1.22;72.34;101980.34;4993126;28;20050;-76
2024/01/21 03:58:10;;;;;;;3.58;3.17;;;;;;;-1.22;72.79;101978.50;4992944;28;20129;-77
2024/01/21 04:00:36;;;;;;;4.70;3.55;;;;;;;-1.22;72.54;101968.03;5000649;28;20042;-77
2024/01/21 04:03:03;;;;;;;4.03;3.05;;;;;;;-1.24;72.69;101967.59;4995504;28;20443;-78
2024/01/21 04:05:29;;;;;;;5.13;2.85;;;;;;;-1.25;71.86;101960.09;4993894;28;20054;-78
2024/01/21 04:07:56;;;;;;;3.85;3.08;;;;;;;-1.28;72.20;101956.28;5000590;28;20042;-78
2024/01/21 04:10:23;;;;;;;8.40;2.88;;;;;;;-1.27;72.06;101951.81;4994557;28;20051;-78
2024/01/21 04:12:49;;;;;;;2.30;2.10;;;;;;;-1.27;73.01;101936.91;4995564;28;20049;-78
2024/01/21 04:15:16;;;;;;;2.97;2.67;;;;;;;-1.28;73.27;101932.78;5000566;28;20047;-80
2024/01/21 04:17:42;;;;;;;3.15;2.72;;;;;;;-1.28;72.35;101937.22;5003284;28;20047;-79
2024/01/21 04:20:10;;;;;;;7.07;3.70;;;;;;;-1.28;72.46;101937.22;5001011;28;20049;-79
2024/01/21 04:22:39;;;;;;;2.63;2.30;;;;;;;-1.27;72.90;101938.75;4994837;28;20197;-79
2024/01/21 04:25:05;;;;;;;4.90;2.85;;;;;;;-1.25;73.20;101932.09;5000019;28;20611;-79
2024/01/21 04:27:32;;;;;;;2.17;1.98;;;;;;;-1.23;73.41;101937.78;4995922;28;20557;-79
2024/01/21 04:30:00;;;;;;;3.70;2.58;;;;;;;-1.20;72.61;101926.63;4995971;28;20049;-79
2024/01/21 04:32:26;;;;;;;4.10;2.63;;;;;;;-1.17;72.47;101923.38;4995522;28;20058;-78
2024/01/21 04:34:53;;;;;;;3.90;2.75;;;;;;;-1.14;72.22;101914.09;5001045;28;20571;-78
2024/01/21 04:37:20;;;;;;;6.18;2.90;;;;;;;-1.13;72.52;101910.41;4995621;28;20061;-77
2024/01/21 04:39:46;;;;;;;3.30;2.50;;;;;;;-1.09;72.71;101895.59;4993415;28;20051;-77
2024/01/21 04:42:13;;;;;;;1.08;1.00;;;;;;;-1.07;73.43;101891.53;4987614;28;20050;-77
2024/01/21 04:44:40;;;;;;;4.13;2.80;;;;;;;-1.06;72.40;101887.84;4994189;28;20054;-78
2024/01/21 04:47:06;;;;;;;5.05;3.08;;;;;;;-1.03;72.91;101879.34;4995052;28;20051;-77
2024/01/21 04:49:33;;;;;;;5.30;3.22;;;;;;;-1.02;72.30;101885.31;4993293;28;20043;-77
2024/01/21 04:52:01;;;;;;;5.03;3.08;;;;;;;-1.01;72.19;101884.22;4995940;28;20144;-77
2024/01/21 04:54:27;;;;;;;4.38;3.15;;;;;;;-0.99;72.15;101873.44;4993846;28;20051;-78
2024/01/21 04:56:54;;;;;;;6.55;3.30;;;;;;;-0.97;72.94;101855.56;4994547;28;20835;-78
2024/01/21 04:59:21;;;;;;;3.78;2.67;;;;;;;-0.95;72.60;101862.00;4994650;28;20071;-77
2024/01/21 05:01:51;;;;;;;3.33;2.10;;;;;;;-0.92;73.52;101869.19;4998158;28;20050;-77
2024/01/21 05:04:18;;;;;;;3.00;2.78;;;;;;;-0.91;73.51;101878.53;4993719;28;20051;-77
2024/01/21 05:06:45;;;;;;;2.88;2.30;;;;;;;-0.89;73.00;101871.13;4995828;28;20046;-76
2024/01/21 05:09:12;;;;;;;3.60;2.83;;;;;;;-0.88;72.77;101856.19;5002222;28;20045;-77
2024/01/21 05:11:39;;;;;;;5.22;3.30;;;;;;;-0.85;73.19;101879.06;4993908;28;20556;-78
2024/01/21 05:14:05;;;;;;;6.20;3.80;;;;;;;-0.84;72.50;101873.50;4990811;28;20074;-78
2024/01/21 05:16:32;;;;;;;4.28;3.45;;;;;;;-0.80;72.86;101876.94;4993385;28;20468;-78
2024/01/21 05:18:58;;;;;;;4.45;2.70;;;;;;;-0.76;73.32;101864.72;4995877;28;20126;-79
2024/01/21 05:21:25;;;;;;;3.95;3.65;;;;;;;-0.74;72.84;101853.94;4994630;28;20047;-79
2024/01/21 05:23:52;;;;;;;2.40;2.17;;;;;;;-0.74;72.94;101846.84;4995228;28;20073;-78
2024/01/21 05:26:21;;;;;;;3.22;2.85;;;;;;;-0.73;72.81;101864.06;4989310;28;20486;-79
2024/01/21 05:28:48;;;;;;;4.22;3.17;;;;;;;-0.73;72.92;101850.97;4992699;28;20150;-79
2024/01/21 05:31:14;;;;;;;4.13;3.28;;;;;;;-0.71;72.93;101842.81;4999877;28;20042;-78
2024/01/21 05:33:41;;;;;;;7.78;3.30;;;;;;;-0.70;73.43;101816.31;4993124;28;20046;-78
2024/01/21 05:36:12;;;;;;;5.00;3.72;;;;;;;-0.67;73.79;101807.03;4997233;28;20094;-78
2024/01/21 05:38:39;;;;;;;4.80;3.45;;;;;;;-0.67;73.79;101807.03;4997068;28;20047;-78
2024/01/21 05:41:05;;;;;;;4.13;3.20;;;;;;;-0.67;72.89;101796.59;4997559;28;20043;-78
2024/01/21 05:43:32;;;;;;;4.68;3.17;;;;;;;-0.67;72.83;101781.66;4993550;28;20781;-77
2024/01/21 05:45:58;;;;;;;8.77;3.60;;;;;;;-0.66;73.18;101771.94;4993077;28;20745;-77
2024/01/21 05:48:25;;;;;;;5.45;3.15;;;;;;;-0.64;73.32;101797.78;4992012;28;20105;-78
2024/01/21 05:50:52;;;;;;;3.55;3.08;;;;;;;-0.63;72.84;101784.34;4993884;28;20047;-77
2024/01/21 05:53:18;;;;;;;3.55;3.25;;;;;;;-0.64;73.55;101808.22;4997655;28;20058;-77
2024/01/21 05:55:47;;;;;;;11.05;4.03;;;;;;;-0.64;73.84;101801.16;4991720;28;20108;-77
2024/01/21 05:58:15;;;;;;;6.95;4.03;;;;;;;-0.63;73.41;101820.22;4991063;28;20038;-77
2024/01/21 06:00:42;;;;;;;5.47;4.28;;;;;;;-0.64;73.36;101809.00;4991703;28;20130;-77
2024/01/21 06:03:09;;;;;;;5.32;3.80;;;;;;;-0.64;73.47;101803.75;4993312;28;20047;-77
2024/01/21 06:05:36;;;;;;;4.90;3.58;;;;;;;-0.61;73.18;101792.63;4994639;28;20506;-77
2024/01/21 06:08:02;;;;;;;6.10;3.65;;;;;;;-0.60;73.43;101793.38;4994798;28;20047;-77
2024/01/21 06:10:29;;;;;;;5.65;4.00;;;;;;;-0.58;73.15;101825.19;4990232;28;20516;-78
2024/01/21 06:12:55;;;;;;;5.15;3.70;;;;;;;-0.54;73.43;101834.66;4990366;28;20522;-77
2024/01/21 06:15:22;;;;;;;4.65;3.67;;;;;;;-0.51;73.82;101820.91;4990146;28;20562;-77
2024/01/21 06:17:51;;;;;;;6.07;3.70;;;;;;;-0.48;73.63;101833.31;4992524;28;20179;-77
2024/01/21 06:20:19;;;;;;;6.68;4.00;;;;;;;-0.45;73.59;101822.19;4991418;28;20093;-77
2024/01/21 06:22:45;;;;;;;3.92;2.45;;;;;;;-0.41;73.89;101799.47;4993387;28;20047;-77
2024/01/21 06:25:12;;;;;;;5.18;3.78;;;;;;;-0.35;73.70;101810.41;5002236;28;20081;-77
2024/01/21 06:27:38;;;;;;;4.07;3.13;;;;;;;-0.29;73.63;101835.25;4997877;28;20039;-79
2024/01/21 06:30:14;;;;;;;4.60;3.50;;;;;;;-0.26;73.61;101825.94;4997398;28;20047;-78
2024/01/21 06:32:42;;;;;;;4.60;3.83;;;;;;;-0.23;73.38;101810.34;4998084;28;20840;-78
2024/01/21 06:35:22;;;;;;;4.18;3.22;;;;;;;-0.18;73.85;101807.47;4995442;28;20039;-77
2024/01/21 06:37:49;;;;;;;6.10;3.85;;;;;;;-0.15;72.94;101821.72;4995279;28;20539;-78
2024/01/21 06:40:16;;;;;;;10.13;3.90;;;;;;;-0.14;72.32;101836.34;4995960;28;20043;-77
2024/01/21 06:42:43;;;;;;;5.50;3.83;;;;;;;-0.09;73.11;101823.75;4997507;28;20051;-78
2024/01/21 06:45:13;;;;;;;4.60;3.92;;;;;;;-0.03;72.99;101829.50;4995968;28;20107;-78
2024/01/21 06:47:41;;;;;;;6.72;4.25;;;;;;;0.00;72.50;101837.41;4995438;28;20115;-77
2024/01/21 06:50:09;;;;;;;7.40;4.13;;;;;;;0.02;72.18;101826.59;4998334;28;20078;-78
2024/01/21 06:52:36;;;;;;;8.40;4.30;;;;;;;0.04;72.38;101808.69;5000888;28;21051;-78
2024/01/21 06:55:03;;;;;;;4.93;4.00;;;;;;;0.07;72.59;101791.53;4995189;28;20899;-79
2024/01/21 06:57:30;;;;;;;5.18;4.05;;;;;;;0.08;71.97;101806.91;5002125;28;20039;-78
2024/01/21 06:59:56;;;;;;;6.55;4.35;;;;;;;0.10;72.21;101773.28;5002777;28;20437;-78
2024/01/21 07:02:23;;;;;;;6.82;4.00;;;;;;;0.10;71.84;101749.72;4996044;28;20042;-78
2024/01/21 07:04:50;;;;;;;4.07;3.67;;;;;;;0.12;72.35;101755.38;4995613;28;20047;-78
2024/01/21 07:07:16;;;;;;;5.13;4.03;;;;;;;0.13;72.43;101754.28;5000230;28;20049;-78
2024/01/21 07:09:43;;;;;;;5.82;3.17;;;;;;;0.12;72.12;101750.13;4995564;28;20518;-78
2024/01/21 07:12:09;;;;;;;7.20;4.28;;;;;;;0.14;72.32;101742.69;4992452;28;20062;-78
2024/01/21 07:14:36;;;;;;;3.45;2.95;;;;;;;0.16;72.58;101742.34;4991642;28;20731;-78
2024/01/21 07:17:03;;;;;;;6.38;4.38;;;;;;;0.16;72.08;101731.88;4995930;28;20051;-78
2024/01/21 07:19:30;;;;;;;6.50;3.55;;;;;;;0.16;72.36;101722.16;4994008;28;20051;-79
2024/01/21 07:21:57;;;;;;;5.45;3.60;;;;;;;0.17;72.49;101739.38;4993225;28;20070;-76
2024/01/21 07:24:24;;;;;;;5.30;4.00;;;;;;;0.16;72.05;101752.81;4992943;28;20047;-76
2024/01/21 07:26:50;;;;;;;5.28;3.80;;;;;;;0.15;71.58;101753.94;4994958;28;20050;-77
2024/01/21 07:29:17;;;;;;;15.88;4.95;;;;;;;0.16;72.05;101773.78;4994604;28;20110;-77
2024/01/21 07:31:43;;;;;;;6.47;4.45;;;;;;;0.17;71.87;101776.06;4993183;28;20051;-76
2024/01/21 07:34:10;;;;;;;5.63;4.20;;;;;;;0.16;71.45;101773.78;4993973;28;20498;-77
2024/01/21 07:36:37;;;;;;;4.60;3.55;;;;;;;0.16;71.42;101782.38;4993542;28;20043;-77
2024/01/21 07:39:07;;;;;;;4.45;4.05;;;;;;;0.18;71.38;101797.75;4995646;28;20493;-78
2024/01/21 07:41:34;;;;;;;5.60;4.22;;;;;;;0.16;70.69;101792.88;4997037;28;20126;-78
2024/01/21 07:44:01;;;;;;;5.65;4.25;;;;;;;0.17;70.82;101814.56;4995175;28;20673;-78
2024/01/21 07:46:27;;;;;;;6.95;4.45;;;;;;;0.20;70.92;101814.66;4999244;28;20047;-79
2024/01/21 07:48:54;;;;;;;7.40;4.22;;;;;;;0.21;70.58;101804.94;4997492;28;20051;-78
2024/01/21 07:51:20;;;;;;;5.25;4.20;;;;;;;0.22;70.61;101815.06;4992290;28;20123;-76
2024/01/21 07:53:47;;;;;;;5.88;4.47;;;;;;;0.26;70.88;101823.00;4993364;28;20105;-77
2024/01/21 07:56:13;;;;;;;5.70;3.50;;;;;;;0.28;70.42;101824.19;4992627;28;20051;-77
2024/01/21 07:58:40;;;;;;;5.22;4.13;;;;;;;0.32;70.18;101811.16;4994105;28;20124;-77
2024/01/21 08:01:11;;;;;;;4.75;4.25;;;;;;;0.32;70.19;101817.16;4992641;28;20090;-76
2024/01/21 08:03:39;;;;;;;8.35;4.22;;;;;;;0.35;71.14;101810.47;4988979;28;20054;-76
2024/01/21 08:06:07;;;;;;;5.03;4.32;;;;;;;0.38;71.03;101828.13;4992252;28;20100;-76
2024/01/21 08:08:35;;;;;;;4.30;3.70;;;;;;;0.38;70.36;101830.75;4991592;28;20504;-76
2024/01/21 08:11:02;;;;;;;5.38;3.97;;;;;;;0.42;70.56;101831.56;4993069;28;20055;-77
2024/01/21 08:13:28;;;;;;;3.88;3.47;;;;;;;0.44;69.92;101836.47;4991836;28;20051;-76
2024/01/21 08:15:55;;;;;;;5.97;4.50;;;;;;;0.48;70.24;101832.06;4996801;28;20058;-76
2024/01/21 08:18:22;;;;;;;5.30;4.10;;;;;;;0.53;70.29;101821.31;4995435;28;20070;-76
2024/01/21 08:20:50;;;;;;;6.72;4.30;;;;;;;0.55;69.90;101829.56;4992370;28;20073;-77
2024/01/21 08:23:17;;;;;;;5.15;3.83;;;;;;;0.60;70.96;101835.31;4994963;28;20045;-76
2024/01/21 08:25:43;;;;;;;4.68;3.45;;;;;;;0.63;70.76;101829.38;4992753;28;20113;-76
2024/01/21 08:28:10;;;;;;;6.43;3.70;;;;;;;0.69;71.26;101822.00;4992464;28;20078;-78
2024/01/21 08:30:37;;;;;;;5.20;3.58;;;;;;;0.73;70.83;101825.47;4994338;28;20526;-76
2024/01/21 08:33:04;;;;;;;7.65;4.32;;;;;;;0.76;71.07;101843.13;4997220;28;20337;-77
2024/01/21 08:35:31;;;;;;;4.95;4.10;;;;;;;0.81;70.99;101842.81;4993941;28;20074;-76
2024/01/21 08:37:58;;;;;;;4.95;3.90;;;;;;;0.83;71.10;101843.22;4991753;28;20506;-76
2024/01/21 08:40:24;;;;;;;12.65;5.05;;;;;;;0.88;71.15;101858.69;4991652;28;20082;-76
2024/01/21 08:42:51;;;;;;;4.72;4.18;;;;;;;0.92;70.95;101837.78;4991456;28;20043;-76
2024/01/21 08:45:18;;;;;;;5.55;4.20;;;;;;;0.94;71.32;101831.09;4992569;28;20042;-77
2024/01/21 08:47:45;;;;;;;6.75;4.35;;;;;;;0.98;71.06;101831.91;4996039;28;20130;-76
2024/01/21 08:50:12;;;;;;;4.78;3.65;;;;;;;1.03;70.82;101836.13;4992014;28;20051;-77
2024/01/21 08:52:39;;;;;;;7.72;4.85;;;;;;;1.08;71.47;101842.94;4990092;28;20054;-74
2024/01/21 08:55:06;;;;;;;6.03;4.10;;;;;;;1.14;71.60;101844.19;4991894;28;20480;-74
2024/01/21 08:57:32;;;;;;;6.85;3.95;;;;;;;1.21;71.85;101836.41;4991413;28;20051;-75
2024/01/21 08:59:59;;;;;;;5.28;4.57;;;;;;;1.30;71.02;101844.84;4992012;28;20078;-75
2024/01/21 09:02:26;;;;;;;9.18;4.40;;;;;;;1.34;71.05;101856.16;4991195;28;20550;-76
2024/01/21 09:04:52;;;;;;;7.60;3.92;;;;;;;1.38;71.32;101853.59;4993225;28;20043;-75
2024/01/21 09:07:19;;;;;;;7.38;4.63;;;;;;;1.38;70.99;101864.84;4992861;28;20047;-78
2024/01/21 09:09:46;;;;;;;7.53;4.82;;;;;;;1.40;71.31;101873.13;4992176;28;20082;-78
2024/01/21 09:12:14;;;;;;;6.13;5.03;;;;;;;1.38;71.35;101877.19;4994568;28;20055;-78
2024/01/21 09:14:42;;;;;;;7.68;4.60;;;;;;;1.38;71.97;101877.19;4996837;28;20513;-77
2024/01/21 09:17:09;;;;;;;5.05;4.43;;;;;;;1.39;72.38;101871.59;4996004;28;20046;-79
2024/01/21 09:19:37;;;;;;;4.90;4.03;;;;;;;1.41;72.76;101869.41;5000063;28;20046;-83
2024/01/21 09:22:04;;;;;;;3.92;3.47;;;;;;;1.44;72.92;101845.09;4995829;28;20047;-81
2024/01/21 09:24:31;;;;;;;6.53;5.07;;;;;;;1.51;73.17;101849.69;4994567;28;20051;-83
2024/01/21 09:26:58;;;;;;;7.45;4.05;;;;;;;1.53;73.44;101840.38;4995253;28;20065;-82
2024/01/21 09:29:24;;;;;;;5.13;4.43;;;;;;;1.57;73.63;101859.56;4994175;28;20581;-81
2024/01/21 09:31:55;;;;;;;5.38;4.53;;;;;;;1.59;73.36;101872.34;5001875;28;20076;-80
2024/01/21 09:34:22;;;;;;;5.47;3.97;;;;;;;1.60;74.09;101856.22;4995706;28;20078;-80
2024/01/21 09:36:52;;;;;;;10.13;4.88;;;;;;;1.63;73.85;101862.63;5000076;28;20058;-81
2024/01/21 09:39:20;;;;;;;5.05;3.85;;;;;;;1.65;74.29;101869.03;4996639;28;20571;-78
2024/01/21 09:41:49;;;;;;;13.65;6.20;;;;;;;1.67;74.26;101869.44;4996460;28;20051;-79
2024/01/21 09:44:26;;;;;;;5.88;4.72;;;;;;;1.69;74.63;101879.59;4998821;28;20900;-80
2024/01/21 09:46:54;;;;;;;4.38;3.97;;;;;;;1.72;75.20;101886.03;4994048;28;20031;-76
2024/01/21 09:49:21;;;;;;;6.25;4.80;;;;;;;1.75;75.62;101883.44;5001355;28;20047;-79
2024/01/21 09:51:49;;;;;;;6.15;4.13;;;;;;;1.79;75.90;101883.50;4998771;28;20062;-81
2024/01/21 09:54:17;;;;;;;8.48;4.80;;;;;;;1.82;76.04;101872.31;5000456;28;20082;-78
2024/01/21 09:56:43;;;;;;;4.28;3.88;;;;;;;1.84;76.60;101870.84;4996547;28;20155;-79
2024/01/21 09:59:11;;;;;;;5.57;3.72;;;;;;;1.88;76.97;101863.03;4996505;28;20134;-79
2024/01/21 10:01:40;;;;;;;4.55;4.00;;;;;;;1.91;77.29;101870.97;4998498;28;20502;-80
2024/01/21 10:04:11;;;;;;;4.97;4.07;;;;;;;1.93;77.63;101867.97;5002352;28;20054;-78
2024/01/21 10:06:38;;;;;;;5.07;3.55;;;;;;;1.94;77.83;101856.38;5004109;28;20430;-79
2024/01/21 10:09:19;;;;;;;6.50;4.45;;;;;;;1.98;78.47;101865.06;5002639;28;20054;-79
2024/01/21 10:12:04;;;;;;;4.57;4.17;;;;;;;1.98;78.75;101865.81;5002732;28;20051;-80
2024/01/21 10:14:35;;;;;;;8.65;4.90;;;;;;;2.01;79.15;101872.22;5016665;28;20062;-81
2024/01/21 10:17:02;;;;;;;9.30;4.90;;;;;;;2.04;79.71;101866.25;5003735;28;20035;-80
2024/01/21 10:19:33;;;;;;;3.80;3.40;;;;;;;2.09;79.89;101865.19;5005990;28;20031;-77
2024/01/21 10:22:07;;;;;;;7.07;5.30;;;;;;;2.14;80.28;101864.91;4993918;28;20051;-77
2024/01/21 10:24:37;;;;;;;5.35;3.45;;;;;;;2.20;80.48;101853.75;4990601;28;20051;-78
2024/01/21 10:27:08;;;;;;;7.03;4.95;;;;;;;2.26;80.89;101859.44;4993372;28;20050;-80
2024/01/21 10:29:42;;;;;;;4.70;4.20;;;;;;;2.28;81.21;101863.25;4999114;28;20031;-79
2024/01/21 10:32:12;;;;;;;6.13;4.75;;;;;;;2.26;81.78;101860.19;4990085;28;20050;-78
2024/01/21 10:34:40;;;;;;;7.43;4.95;;;;;;;2.25;82.11;101863.19;4993493;28;20638;-77
2024/01/21 10:37:07;;;;;;;6.20;4.93;;;;;;;2.27;82.88;101860.97;4990589;28;20126;-76
2024/01/21 10:39:37;;;;;;;6.15;4.68;;;;;;;2.25;83.53;101858.69;4989415;28;20050;-77
2024/01/21 10:42:06;;;;;;;5.05;4.38;;;;;;;2.27;83.85;101855.72;4987153;28;20051;-77
2024/01/21 10:44:35;;;;;;;5.15;4.60;;;;;;;2.28;84.35;101857.97;4990256;28;20125;-77
2024/01/21 10:47:04;;;;;;;5.32;4.05;;;;;;;2.31;84.58;101848.63;4988367;28;20101;-76
2024/01/21 10:49:32;;;;;;;7.80;5.60;;;;;;;2.33;85.47;101849.78;4993448;28;20051;-76
2024/01/21 10:52:00;;;;;;;5.25;4.63;;;;;;;2.37;86.09;101851.72;4989307;28;20486;-76
2024/01/21 10:54:30;;;;;;;5.22;4.05;;;;;;;2.39;86.53;101846.84;4991280;28;20053;-77
2024/01/21 10:56:59;;;;;;;5.75;4.70;;;;;;;2.43;86.32;101837.13;4990950;28;20051;-76
2024/01/21 10:59:25;;;;;;;5.15;4.45;;;;;;;2.46;86.81;101847.69;4991613;28;20078;-77
2024/01/21 11:01:52;;;;;;;9.23;5.75;;;;;;;2.49;87.43;101839.09;4995613;28;20050;-77
2024/01/21 11:04:21;;;;;;;5.40;4.45;;;;;;;2.51;87.64;101838.72;4993710;28;20833;-76
2024/01/21 11:06:51;;;;;;;8.00;4.60;;;;;;;2.54;88.19;101832.75;4995690;28;20133;-77
2024/01/21 11:09:22;;;;;;;7.70;5.35;;;;;;;2.57;88.66;101838.06;4992857;28;20145;-77
2024/01/21 11:11:51;;;;;;;7.07;5.22;;;;;;;2.58;88.56;101839.56;4997235;28;20050;-76
2024/01/21 11:14:35;;;;;;;7.43;5.45;;;;;;;2.60;88.78;101834.72;4999334;28;20422;-77
2024/01/21 11:17:10;;;;;;;8.38;5.32;;;;;;;2.60;88.89;101845.25;4995671;28;20047;-79
2024/01/21 11:19:49;;;;;;;6.93;4.97;;;;;;;2.61;89.00;101838.88;4993394;28;20077;-78
2024/01/21 11:22:20;;;;;;;9.50;5.30;;;;;;;2.62;89.57;101837.00;4994114;28;20050;-75
2024/01/21 11:24:47;;;;;;;5.82;4.68;;;;;;;2.63;89.46;101828.00;4992757;28;20047;-76
2024/01/21 11:27:18;;;;;;;6.07;5.40;;;;;;;2.63;89.70;101836.63;4993050;28;20051;-76
2024/01/21 11:29:47;;;;;;;;;;;;;;;2.64;88.54;101838.16;4992136;28;20055;-75